Time;durP1;ratioP1;P1;durP2;ratioP2;P2;SDS_P1;SDS_P2;PMS_P1;PMS_P2;Temp;Humidity;BMP_temperature;BMP_pressure;BME280_temperature;BME280_humidity;BME280_pressure;Samples;Min_cycle;Max_cycle;Signal;HPM_P1;HPM_P2
2022/04/27 00:02:19;;;;;;;;;;;8.80;99.90;;;;;;4989050;28;19926;-89
2022/04/27 00:04:46;;;;;;;;;;;8.80;99.90;;;;;;4988858;28;20031;-91
2022/04/27 00:07:13;;;;;;;;;;;8.80;99.90;;;;;;4972093;28;19933;-91
2022/04/27 00:09:40;;;;;;;;;;;8.80;99.90;;;;;;4983014;28;20484;-90
2022/04/27 00:12:07;;;;;;;;;;;8.80;99.90;;;;;;4974989;28;20415;-90
2022/04/27 00:14:34;;;;;;;;;;;8.80;99.90;;;;;;4996299;28;19984;-91
2022/04/27 00:17:02;;;;;;;;;;;8.80;99.90;;;;;;4991953;28;19973;-89
2022/04/27 00:19:30;;;;;;;;;;;8.80;99.90;;;;;;4990879;28;19926;-90
2022/04/27 00:21:57;;;;;;;;;;;8.80;99.90;;;;;;4972008;28;20095;-90
2022/04/27 00:24:24;;;;;;;;;;;8.70;99.90;;;;;;4985434;28;19926;-90
2022/04/27 00:26:51;;;;;;;;;;;8.70;99.90;;;;;;4990162;28;19925;-90
2022/04/27 00:29:18;;;;;;;;;;;8.70;99.90;;;;;;4968847;28;19933;-90
2022/04/27 00:31:46;;;;;;;;;;;8.70;99.90;;;;;;4977010;23;19969;-85
2022/04/27 00:34:13;;;;;;;;;;;8.70;99.90;;;;;;4982019;28;19932;-86
2022/04/27 00:36:41;;;;;;;;;;;8.70;99.90;;;;;;4979269;28;20384;-84
2022/04/27 00:39:08;;;;;;;;;;;8.70;99.90;;;;;;4982292;28;20343;-84
2022/04/27 00:41:35;;;;;;;;;;;8.70;99.90;;;;;;4965243;28;19926;-85
2022/04/27 00:44:02;;;;;;;;;;;8.70;99.90;;;;;;4965353;28;19929;-83
2022/04/27 00:46:30;;;;;;;;;;;8.70;99.90;;;;;;4972670;28;19952;-85
2022/04/27 00:48:57;;;;;;;;;;;8.70;99.90;;;;;;4967686;28;20328;-85
2022/04/27 00:51:25;;;;;;;;;;;8.60;99.90;;;;;;4976047;28;19930;-84
2022/04/27 00:53:53;;;;;;;;;;;8.60;99.90;;;;;;4969135;28;19930;-84
2022/04/27 00:56:21;;;;;;;;;;;8.60;99.90;;;;;;4963220;28;20001;-85
2022/04/27 00:58:49;;;;;;;;;;;8.60;99.90;;;;;;4964809;28;19934;-84
2022/04/27 01:01:16;;;;;;;;;;;8.60;99.90;;;;;;4960894;28;20457;-85
2022/04/27 01:03:43;;;;;;;;;;;8.60;99.90;;;;;;4965459;28;20435;-86
2022/04/27 01:06:10;;;;;;;;;;;8.60;99.90;;;;;;4948117;28;19927;-85
2022/04/27 01:08:37;;;;;;;;;;;8.60;99.90;;;;;;4967154;28;20312;-86
2022/04/27 01:11:07;;;;;;;;;;;8.60;99.90;;;;;;4962832;28;19926;-85
2022/04/27 01:13:39;;;;;;;;;;;8.60;99.90;;;;;;4976456;28;20023;-84
2022/04/27 01:16:06;;;;;;;;;;;8.60;99.90;;;;;;4961788;28;20020;-85
2022/04/27 01:18:33;;;;;;;;;;;8.60;99.90;;;;;;4964285;28;20402;-84
2022/04/27 01:21:02;;;;;;;;;;;8.60;99.90;;;;;;4963507;28;19933;-84
2022/04/27 01:23:30;;;;;;;;;;;8.60;99.90;;;;;;4965806;28;19934;-85
2022/04/27 01:26:05;;;;;;;;;;;8.60;99.90;;;;;;4969171;28;20433;-86
2022/04/27 01:28:35;;;;;;;;;;;8.60;99.90;;;;;;4968943;28;20469;-84
2022/04/27 01:31:03;;;;;;;;;;;8.60;99.90;;;;;;4967457;28;19957;-86
2022/04/27 01:33:30;;;;;;;;;;;8.60;99.90;;;;;;4959968;28;19926;-86
2022/04/27 01:35:58;;;;;;;;;;;8.50;99.90;;;;;;4957177;28;19989;-85
2022/04/27 01:38:27;;;;;;;;;;;8.50;99.90;;;;;;4962472;28;20030;-84
2022/04/27 01:40:56;;;;;;;;;;;8.50;99.90;;;;;;4955314;28;19934;-85
2022/04/27 01:43:24;;;;;;;;;;;8.50;99.90;;;;;;4977899;28;20029;-85
2022/04/27 01:45:51;;;;;;;;;;;8.50;99.90;;;;;;4965607;28;19987;-84
2022/04/27 01:48:18;;;;;;;;;;;8.50;99.90;;;;;;4961807;28;19931;-85
2022/04/27 01:50:45;;;;;;;;;;;8.50;99.90;;;;;;4964539;28;19941;-86
2022/04/27 01:55:58;;;;;;;;;;;8.50;99.90;;;;;;4966281;28;19930;-84
2022/04/27 01:58:26;;;;;;;;;;;8.50;99.90;;;;;;4966088;28;19926;-84
2022/04/27 02:00:54;;;;;;;;;;;8.50;99.90;;;;;;4965841;28;19942;-84
2022/04/27 02:03:22;;;;;;;;;;;8.50;99.90;;;;;;4968692;28;19926;-84
2022/04/27 02:05:49;;;;;;;;;;;8.50;99.90;;;;;;4961623;28;20016;-87
2022/04/27 02:08:19;;;;;;;;;;;8.40;99.90;;;;;;4962293;28;19941;-84
2022/04/27 02:10:46;;;;;;;;;;;8.40;99.90;;;;;;4963780;28;20296;-84
2022/04/27 02:13:15;;;;;;;;;;;8.40;99.90;;;;;;4962557;28;19981;-86
2022/04/27 02:15:42;;;;;;;;;;;8.30;99.90;;;;;;4978640;28;19926;-84
2022/04/27 02:18:28;;;;;;;;;;;8.30;99.90;;;;;;4971574;28;20007;-84
2022/04/27 02:20:56;;;;;;;;;;;8.20;99.90;;;;;;4963548;28;19969;-85
2022/04/27 02:23:23;;;;;;;;;;;8.20;99.90;;;;;;4979978;28;19934;-84
2022/04/27 02:25:51;;;;;;;;;;;8.20;99.90;;;;;;4962400;28;19934;-85
2022/04/27 02:28:19;;;;;;;;;;;8.20;99.90;;;;;;4957580;28;19930;-84
2022/04/27 02:30:46;;;;;;;;;;;8.20;99.90;;;;;;4973959;28;19996;-83
2022/04/27 02:33:13;;;;;;;;;;;8.20;99.90;;;;;;4965205;28;19934;-84
2022/04/27 02:35:40;;;;;;;;;;;8.20;99.90;;;;;;4982186;28;19926;-86
2022/04/27 02:38:07;;;;;;;;;;;8.10;99.90;;;;;;4988798;28;19981;-84
2022/04/27 02:40:34;;;;;;;;;;;8.10;99.90;;;;;;4971018;28;19940;-86
2022/04/27 02:43:02;;;;;;;;;;;8.10;99.90;;;;;;4963345;28;19968;-84
2022/04/27 02:45:31;;;;;;;;;;;8.10;99.90;;;;;;4968190;28;19940;-85
2022/04/27 02:47:58;;;;;;;;;;;8.10;99.90;;;;;;4972737;28;19961;-86
2022/04/27 02:53:10;;;;;;;;;;;8.10;99.90;;;;;;4977913;28;19961;-84
2022/04/27 02:55:38;;;;;;;;;;;8.10;99.90;;;;;;4990194;28;19930;-84
2022/04/27 02:58:05;;;;;;;;;;;8.10;99.90;;;;;;4963283;28;20392;-85
2022/04/27 03:00:34;;;;;;;;;;;8.00;99.90;;;;;;4959354;28;20480;-86
2022/04/27 03:03:07;;;;;;;;;;;8.10;99.90;;;;;;4987238;28;19926;-86
2022/04/27 03:05:34;;;;;;;;;;;8.00;99.90;;;;;;4974509;28;20308;-85
2022/04/27 03:08:01;;;;;;;;;;;8.00;99.90;;;;;;4981694;28;19965;-85
2022/04/27 03:10:30;;;;;;;;;;;8.00;99.90;;;;;;4985268;28;20521;-85
2022/04/27 03:12:59;;;;;;;;;;;8.00;99.90;;;;;;4990634;28;19932;-85
2022/04/27 03:15:27;;;;;;;;;;;8.00;99.90;;;;;;4977998;28;19926;-85
2022/04/27 03:20:36;;;;;;;;;;;8.00;99.90;;;;;;4983555;28;20024;-84
2022/04/27 03:23:03;;;;;;;;;;;8.00;99.90;;;;;;4969813;28;20020;-86
2022/04/27 03:25:30;;;;;;;;;;;8.00;99.90;;;;;;4976900;28;20562;-85
2022/04/27 03:27:57;;;;;;;;;;;8.00;99.90;;;;;;4970520;28;19982;-84
2022/04/27 03:30:24;;;;;;;;;;;7.90;99.90;;;;;;4993857;28;20013;-84
2022/04/27 03:32:55;;;;;;;;;;;7.90;99.90;;;;;;4979031;28;19930;-86
2022/04/27 03:35:22;;;;;;;;;;;7.90;99.90;;;;;;4977333;28;19997;-86
2022/04/27 03:37:50;;;;;;;;;;;7.90;99.90;;;;;;4974164;28;19936;-86
2022/04/27 03:40:21;;;;;;;;;;;7.90;99.90;;;;;;4976782;28;19926;-84
2022/04/27 03:42:50;;;;;;;;;;;7.90;99.90;;;;;;4988190;28;19984;-85
2022/04/27 03:45:19;;;;;;;;;;;7.90;99.90;;;;;;4977554;28;19933;-86
2022/04/27 03:47:47;;;;;;;;;;;7.90;99.90;;;;;;4984720;28;20361;-88
2022/04/27 03:50:15;;;;;;;;;;;7.90;99.90;;;;;;4979079;28;20024;-85
2022/04/27 03:52:48;;;;;;;;;;;7.90;99.90;;;;;;4977648;28;19965;-86
2022/04/27 03:55:15;;;;;;;;;;;7.90;99.90;;;;;;4977703;28;19954;-84
2022/04/27 03:57:47;;;;;;;;;;;7.80;99.90;;;;;;4990516;28;19933;-85
2022/04/27 04:00:14;;;;;;;;;;;7.80;99.90;;;;;;4979088;28;20311;-86
2022/04/27 04:02:47;;;;;;;;;;;7.80;99.90;;;;;;4982576;28;19932;-84
2022/04/27 04:05:15;;;;;;;;;;;7.80;99.90;;;;;;4986320;28;20404;-86
2022/04/27 04:07:42;;;;;;;;;;;7.90;99.90;;;;;;4985811;28;20013;-85
2022/04/27 04:10:10;;;;;;;;;;;7.90;99.90;;;;;;4980091;28;20663;-85
2022/04/27 04:12:40;;;;;;;;;;;7.90;99.90;;;;;;4985875;28;20017;-86
2022/04/27 04:15:23;;;;;;;;;;;7.90;99.90;;;;;;4984712;28;19936;-84
2022/04/27 04:18:16;;;;;;;;;;;7.90;99.90;;;;;;4973734;28;20411;-85
2022/04/27 04:20:49;;;;;;;;;;;7.90;99.90;;;;;;4977619;28;19986;-85
2022/04/27 04:23:28;;;;;;;;;;;7.90;99.90;;;;;;4982430;28;19950;-84
2022/04/27 04:28:51;;;;;;;;;;;7.90;99.90;;;;;;4976323;28;19926;-86
2022/04/27 04:31:19;;;;;;;;;;;7.90;99.90;;;;;;4980330;28;20470;-85
2022/04/27 04:34:08;;;;;;;;;;;7.90;99.90;;;;;;4992774;28;20020;-84
2022/04/27 04:36:37;;;;;;;;;;;7.90;99.90;;;;;;4978499;28;19925;-88
2022/04/27 04:39:04;;;;;;;;;;;7.90;99.90;;;;;;4979128;28;19926;-85
2022/04/27 04:41:35;;;;;;;;;;;7.90;99.90;;;;;;4978453;28;20455;-84
2022/04/27 04:44:03;;;;;;;;;;;7.90;99.90;;;;;;4995472;28;19933;-86
2022/04/27 04:46:41;;;;;;;;;;;7.90;99.90;;;;;;4979139;28;19932;-86
2022/04/27 04:49:20;;;;;;;;;;;7.90;99.90;;;;;;4980536;28;20352;-86
2022/04/27 04:52:07;;;;;;;;;;;7.90;99.90;;;;;;4975423;28;19941;-91
2022/04/27 04:55:01;;;;;;;;;;;7.90;99.90;;;;;;4984112;28;19926;-86
2022/04/27 04:58:00;;;;;;;;;;;7.90;99.90;;;;;;4942521;28;19933;-85
2022/04/27 05:00:50;;;;;;;;;;;7.90;99.90;;;;;;4973067;28;20408;-84
2022/04/27 05:03:36;;;;;;;;;;;7.90;99.90;;;;;;4987769;28;20329;-82
2022/04/27 05:06:21;;;;;;;;;;;7.90;99.90;;;;;;4997798;28;20120;-83
2022/04/27 05:09:04;;;;;;;;;;;7.90;99.90;;;;;;4979687;28;19938;-84
2022/04/27 05:11:47;;;;;;;;;;;7.90;99.90;;;;;;4976501;28;19938;-83
2022/04/27 05:14:43;;;;;;;;;;;7.80;99.90;;;;;;4985640;28;19944;-84
2022/04/27 05:17:42;;;;;;;;;;;7.90;99.90;;;;;;4983385;28;19925;-81
2022/04/27 05:20:28;;;;;;;;;;;7.90;99.90;;;;;;4998749;28;19937;-80
2022/04/27 05:23:21;;;;;;;;;;;7.90;99.90;;;;;;4974059;28;19926;-81
2022/04/27 05:26:19;;;;;;;;;;;7.90;99.90;;;;;;4950239;28;20001;-82
2022/04/27 05:32:00;;;;;;;;;;;7.90;99.90;;;;;;4996206;28;19933;-82
2022/04/27 05:34:44;;;;;;;;;;;7.90;99.90;;;;;;4978821;28;19926;-85
2022/04/27 05:37:24;;;;;;;;;;;7.90;99.90;;;;;;4977013;28;20401;-79
2022/04/27 05:40:03;;;;;;;;;;;7.90;99.90;;;;;;4993125;28;19930;-81
2022/04/27 05:42:39;;;;;;;;;;;7.90;99.90;;;;;;4991596;28;19932;-82
2022/04/27 05:45:21;;;;;;;;;;;7.90;99.90;;;;;;4975965;28;20320;-82
2022/04/27 05:48:05;;;;;;;;;;;7.90;99.90;;;;;;4975241;28;19936;-85
2022/04/27 05:50:44;;;;;;;;;;;7.90;99.90;;;;;;4971780;28;19929;-82
2022/04/27 05:53:24;;;;;;;;;;;7.90;99.90;;;;;;4976538;28;19926;-85
2022/04/27 05:56:02;;;;;;;;;;;7.90;99.90;;;;;;4972402;28;19926;-83
2022/04/27 05:58:54;;;;;;;;;;;7.90;99.90;;;;;;4987388;28;19930;-84
2022/04/27 06:01:50;;;;;;;;;;;7.90;99.90;;;;;;4923980;28;20018;-82
2022/04/27 06:04:17;;;;;;;;;;;7.90;99.90;;;;;;4976449;28;19926;-85
2022/04/27 06:06:46;;;;;;;;;;;7.90;99.90;;;;;;4977662;28;19933;-84
2022/04/27 06:09:16;;;;;;;;;;;7.90;99.90;;;;;;4973079;28;19934;-84
2022/04/27 06:11:55;;;;;;;;;;;8.00;99.90;;;;;;4977797;28;19937;-81
2022/04/27 06:14:42;;;;;;;;;;;7.90;99.90;;;;;;4991571;28;20073;-82
2022/04/27 06:17:20;;;;;;;;;;;7.90;99.90;;;;;;4973230;28;20365;-83
2022/04/27 06:19:47;;;;;;;;;;;8.00;99.90;;;;;;4980288;28;19964;-83
2022/04/27 06:22:15;;;;;;;;;;;8.00;99.90;;;;;;4973467;28;20021;-83
2022/04/27 06:24:42;;;;;;;;;;;8.00;99.90;;;;;;4971215;28;19933;-84
2022/04/27 06:27:35;;;;;;;;;;;8.00;99.90;;;;;;4956351;28;19934;-83
2022/04/27 06:30:04;;;;;;;;;;;8.00;99.90;;;;;;4982130;28;20404;-84
2022/04/27 06:32:34;;;;;;;;;;;8.00;99.90;;;;;;5095186;23;19925;-92
2022/04/27 06:35:05;;;;;;;;;;;8.00;99.90;;;;;;5017117;28;19926;-93
2022/04/27 06:37:34;;;;;;;;;;;8.00;99.90;;;;;;4982190;28;19996;-93
2022/04/27 06:40:01;;;;;;;;;;;8.10;99.90;;;;;;4985873;28;19933;-93
2022/04/27 06:42:29;;;;;;;;;;;8.10;99.90;;;;;;4985114;28;19945;-93
2022/04/27 06:45:16;;;;;;;;;;;8.10;99.90;;;;;;5006335;28;19949;-92
2022/04/27 06:48:01;;;;;;;;;;;8.10;99.90;;;;;;4981118;28;19989;-92
2022/04/27 06:50:47;;;;;;;;;;;8.10;99.90;;;;;;4994325;28;19947;-92
2022/04/27 06:53:33;;;;;;;;;;;8.10;99.90;;;;;;4998377;28;19932;-92
2022/04/27 06:56:18;;;;;;;;;;;8.10;99.90;;;;;;4989196;28;19977;-93
2022/04/27 06:58:59;;;;;;;;;;;8.10;99.90;;;;;;4976429;28;19934;-92
2022/04/27 07:01:35;;;;;;;;;;;8.10;99.90;;;;;;4989228;28;19932;-93
2022/04/27 07:04:09;;;;;;;;;;;8.10;99.90;;;;;;4976667;28;19956;-93
2022/04/27 07:06:36;;;;;;;;;;;8.20;99.90;;;;;;4993294;28;20012;-92
2022/04/27 07:09:04;;;;;;;;;;;8.20;99.90;;;;;;5009463;28;19934;-93
2022/04/27 07:11:31;;;;;;;;;;;8.20;99.90;;;;;;4983589;28;20310;-92
2022/04/27 07:13:59;;;;;;;;;;;8.20;99.90;;;;;;4997658;28;19934;-92
2022/04/27 07:16:26;;;;;;;;;;;8.20;99.90;;;;;;4980225;28;20394;-91
2022/04/27 07:18:55;;;;;;;;;;;8.30;99.90;;;;;;5004019;28;19957;-92
2022/04/27 07:21:22;;;;;;;;;;;8.30;99.90;;;;;;4998626;28;20399;-93
2022/04/27 07:23:49;;;;;;;;;;;8.30;99.90;;;;;;4991005;28;19930;-92
2022/04/27 07:26:16;;;;;;;;;;;8.30;99.90;;;;;;4983774;28;20344;-92
2022/04/27 07:28:43;;;;;;;;;;;8.30;99.90;;;;;;4989023;28;20416;-93
2022/04/27 07:31:10;;;;;;;;;;;8.30;99.90;;;;;;4997556;28;20388;-92
2022/04/27 07:33:37;;;;;;;;;;;8.40;99.90;;;;;;4999003;28;20409;-92
2022/04/27 07:36:07;;;;;;;;;;;8.40;99.90;;;;;;4968174;28;20361;-92
2022/04/27 07:38:34;;;;;;;;;;;8.40;99.90;;;;;;4990371;28;19948;-92
2022/04/27 07:41:02;;;;;;;;;;;8.40;99.90;;;;;;4982861;28;19926;-93
2022/04/27 07:43:28;;;;;;;;;;;8.40;99.90;;;;;;4996097;28;20012;-92
2022/04/27 07:45:55;;;;;;;;;;;8.40;99.90;;;;;;4977639;28;19930;-92
2022/04/27 07:48:22;;;;;;;;;;;8.40;99.90;;;;;;5006768;28;19972;-92
2022/04/27 07:50:50;;;;;;;;;;;8.40;99.90;;;;;;4976574;28;19930;-92
2022/04/27 07:53:18;;;;;;;;;;;8.40;99.90;;;;;;4994325;28;19932;-92
2022/04/27 07:55:45;;;;;;;;;;;8.40;99.90;;;;;;4987350;28;20369;-91
2022/04/27 07:58:12;;;;;;;;;;;8.50;99.90;;;;;;4973104;28;20005;-92
2022/04/27 08:00:39;;;;;;;;;;;8.50;99.90;;;;;;5021418;28;19926;-93
2022/04/27 08:03:06;;;;;;;;;;;8.50;99.90;;;;;;5013667;28;19925;-92
2022/04/27 08:05:33;;;;;;;;;;;8.40;99.90;;;;;;4999866;28;19925;-92
2022/04/27 08:08:00;;;;;;;;;;;8.50;99.90;;;;;;4994743;28;19981;-91
2022/04/27 08:10:29;;;;;;;;;;;8.50;99.90;;;;;;5000636;28;19926;-91
2022/04/27 08:12:56;;;;;;;;;;;8.50;99.90;;;;;;4999814;28;19936;-92
2022/04/27 08:15:24;;;;;;;;;;;8.50;99.90;;;;;;4984085;28;20012;-92
2022/04/27 08:17:55;;;;;;;;;;;8.50;99.90;;;;;;5000850;28;19977;-91
2022/04/27 08:23:08;;;;;;;;;;;8.50;99.90;;;;;;5001122;28;19926;-92
2022/04/27 08:25:37;;;;;;;;;;;8.50;99.90;;;;;;4996347;28;19926;-92
2022/04/27 08:28:06;;;;;;;;;;;8.60;99.90;;;;;;5003354;28;20044;-91
2022/04/27 08:30:33;;;;;;;;;;;8.60;99.90;;;;;;4990614;28;19933;-92
2022/04/27 08:33:00;;;;;;;;;;;8.60;99.90;;;;;;4980218;28;20021;-93
2022/04/27 08:35:27;;;;;;;;;;;8.60;99.90;;;;;;4996394;28;19925;-92
2022/04/27 08:37:54;;;;;;;;;;;8.60;99.90;;;;;;4985083;28;19972;-91
2022/04/27 08:40:22;;;;;;;;;;;8.60;99.90;;;;;;4976288;28;19926;-92
2022/04/27 08:42:50;;;;;;;;;;;8.60;99.90;;;;;;4996219;28;20419;-93
2022/04/27 08:45:18;;;;;;;;;;;8.60;99.90;;;;;;4993962;28;19930;-92
2022/04/27 08:47:46;;;;;;;;;;;8.60;99.90;;;;;;5000667;28;19925;-92
2022/04/27 08:50:13;;;;;;;;;;;8.60;99.90;;;;;;4989963;28;19926;-92
2022/04/27 08:52:41;;;;;;;;;;;8.60;99.90;;;;;;4986112;28;19941;-92
2022/04/27 08:55:08;;;;;;;;;;;8.60;99.90;;;;;;5000013;28;20052;-91
2022/04/27 08:57:36;;;;;;;;;;;8.70;99.90;;;;;;4985480;28;20016;-93
2022/04/27 09:00:05;;;;;;;;;;;8.70;99.90;;;;;;5007204;28;19933;-92
2022/04/27 09:02:32;;;;;;;;;;;8.70;99.90;;;;;;5001906;28;20013;-91
2022/04/27 09:05:06;;;;;;;;;;;8.70;99.90;;;;;;4996361;28;19926;-92
2022/04/27 09:07:35;;;;;;;;;;;8.70;99.90;;;;;;4990094;28;19929;-91
2022/04/27 09:10:02;;;;;;;;;;;8.70;99.90;;;;;;5007001;28;20028;-92
2022/04/27 09:12:29;;;;;;;;;;;8.70;99.90;;;;;;4979257;28;19926;-92
2022/04/27 09:15:03;;;;;;;;;;;8.70;99.90;;;;;;4980123;28;19926;-91
2022/04/27 09:23:01;;;;;;;;;;;8.80;99.90;;;;;;4996747;28;19981;-92
2022/04/27 09:25:32;;;;;;;;;;;8.80;99.90;;;;;;5010729;28;19925;-91
2022/04/27 09:28:00;;;;;;;;;;;8.80;99.90;;;;;;4998154;28;19926;-91
2022/04/27 09:30:27;;;;;;;;;;;8.80;99.90;;;;;;4974879;28;19934;-89
2022/04/27 09:32:56;;;;;;;;;;;8.80;99.90;;;;;;4998519;28;20025;-91
2022/04/27 09:35:30;;;;;;;;;;;8.80;99.90;;;;;;5003009;28;19926;-90
2022/04/27 09:37:57;;;;;;;;;;;8.90;99.90;;;;;;5001380;28;19926;-92
2022/04/27 09:40:23;;;;;;;;;;;8.90;99.90;;;;;;4983149;28;19926;-90
2022/04/27 09:42:59;;;;;;;;;;;8.90;99.90;;;;;;4987415;28;19980;-90
2022/04/27 09:45:26;;;;;;;;;;;8.90;99.90;;;;;;4997724;28;20418;-91
2022/04/27 09:47:57;;;;;;;;;;;9.00;99.90;;;;;;5006302;28;19926;-93
2022/04/27 09:50:26;;;;;;;;;;;9.00;99.90;;;;;;5021371;28;19936;-92
2022/04/27 09:52:56;;;;;;;;;;;9.00;99.90;;;;;;5010024;28;19932;-91
2022/04/27 09:55:24;;;;;;;;;;;9.00;99.90;;;;;;5006759;28;20020;-91
2022/04/27 09:57:54;;;;;;;;;;;9.10;99.90;;;;;;5004430;28;19925;-91
2022/04/27 10:00:22;;;;;;;;;;;9.00;99.90;;;;;;4997841;28;19976;-91
2022/04/27 10:02:49;;;;;;;;;;;9.10;99.90;;;;;;4988052;28;20573;-92
2022/04/27 10:05:16;;;;;;;;;;;9.10;99.90;;;;;;5011661;28;19953;-92
2022/04/27 10:07:45;;;;;;;;;;;9.10;99.90;;;;;;5001407;28;19926;-91
2022/04/27 10:10:16;;;;;;;;;;;9.10;99.90;;;;;;4994260;28;19953;-92
2022/04/27 10:12:44;;;;;;;;;;;9.20;99.90;;;;;;4998018;28;19933;-91
2022/04/27 10:15:11;;;;;;;;;;;9.30;99.90;;;;;;4994959;28;19938;-92
2022/04/27 10:17:39;;;;;;;;;;;9.30;99.90;;;;;;4980977;28;19987;-91
2022/04/27 10:20:21;;;;;;;;;;;9.30;99.90;;;;;;4980227;28;19926;-91
2022/04/27 10:22:50;;;;;;;;;;;9.30;99.90;;;;;;4975246;28;19926;-91
2022/04/27 10:25:17;;;;;;;;;;;9.40;99.90;;;;;;5009223;28;20396;-91
2022/04/27 10:27:44;;;;;;;;;;;9.40;99.90;;;;;;4991659;28;19926;-92
2022/04/27 10:30:12;;;;;;;;;;;9.40;99.90;;;;;;4990121;28;23093;-91
2022/04/27 10:32:40;;;;;;;;;;;9.40;99.90;;;;;;4976652;28;19926;-91
2022/04/27 10:35:17;;;;;;;;;;;9.40;99.90;;;;;;4978505;28;20307;-91
2022/04/27 10:37:45;;;;;;;;;;;9.40;99.90;;;;;;4975752;28;19926;-90
2022/04/27 10:40:33;;;;;;;;;;;9.50;99.90;;;;;;4995225;28;19937;-91
2022/04/27 10:43:09;;;;;;;;;;;9.50;99.90;;;;;;4985444;28;19957;-90
2022/04/27 10:45:37;;;;;;;;;;;9.50;99.90;;;;;;4989446;28;19934;-91
2022/04/27 10:48:07;;;;;;;;;;;9.50;99.90;;;;;;4990117;28;19925;-90
2022/04/27 10:50:34;;;;;;;;;;;9.50;99.90;;;;;;4975744;28;19936;-90
2022/04/27 10:53:16;;;;;;;;;;;9.50;99.90;;;;;;4997580;28;19920;-91
2022/04/27 10:55:48;;;;;;;;;;;9.60;99.90;;;;;;5011346;28;19926;-91
2022/04/27 10:58:18;;;;;;;;;;;9.60;99.90;;;;;;4984950;28;19930;-90
2022/04/27 11:01:03;;;;;;;;;;;9.60;99.90;;;;;;4989579;28;19926;-90
2022/04/27 11:03:31;;;;;;;;;;;9.60;99.90;;;;;;4992049;28;20012;-91
2022/04/27 11:05:58;;;;;;;;;;;9.60;99.90;;;;;;4975853;28;20001;-91
2022/04/27 11:08:29;;;;;;;;;;;9.60;99.90;;;;;;4995085;28;19972;-90
2022/04/27 11:10:56;;;;;;;;;;;9.70;99.90;;;;;;4985944;28;19960;-89
2022/04/27 11:13:27;;;;;;;;;;;9.70;99.90;;;;;;4986654;28;19926;-89
2022/04/27 11:15:54;;;;;;;;;;;9.70;99.90;;;;;;4984940;28;20389;-90
2022/04/27 11:18:21;;;;;;;;;;;9.70;99.90;;;;;;4974984;28;20392;-90
2022/04/27 11:20:48;;;;;;;;;;;9.80;99.90;;;;;;4997732;28;19926;-90
2022/04/27 11:23:21;;;;;;;;;;;9.70;99.90;;;;;;4980373;28;20391;-91
2022/04/27 11:25:50;;;;;;;;;;;9.80;99.90;;;;;;4974779;28;20478;-91
2022/04/27 11:28:18;;;;;;;;;;;9.80;99.90;;;;;;4987467;28;20005;-89
2022/04/27 11:30:47;;;;;;;;;;;9.80;99.90;;;;;;4989864;28;19926;-90
2022/04/27 11:33:17;;;;;;;;;;;9.90;99.90;;;;;;4988168;28;19934;-90
2022/04/27 11:35:45;;;;;;;;;;;9.80;99.90;;;;;;4974496;28;20355;-91
2022/04/27 11:38:17;;;;;;;;;;;9.90;99.90;;;;;;4989579;28;19926;-90
2022/04/27 11:40:44;;;;;;;;;;;9.90;99.90;;;;;;4996775;28;20455;-91
2022/04/27 11:43:11;;;;;;;;;;;9.90;99.90;;;;;;4990244;28;19929;-91
2022/04/27 11:45:39;;;;;;;;;;;9.90;99.90;;;;;;4979586;28;19930;-91
2022/04/27 11:48:09;;;;;;;;;;;10.00;99.90;;;;;;5003155;28;19926;-91
2022/04/27 11:50:37;;;;;;;;;;;10.00;99.90;;;;;;4998887;28;20380;-91
2022/04/27 11:53:05;;;;;;;;;;;10.00;99.90;;;;;;5007605;28;19940;-91
2022/04/27 11:55:32;;;;;;;;;;;10.00;99.90;;;;;;4980969;28;19926;-90
2022/04/27 11:58:00;;;;;;;;;;;10.00;99.90;;;;;;4990313;28;19926;-90
2022/04/27 12:00:29;;;;;;;;;;;10.10;99.90;;;;;;4991095;28;19925;-91
2022/04/27 12:03:03;;;;;;;;;;;10.10;99.90;;;;;;4994078;28;19948;-91
2022/04/27 12:05:33;;;;;;;;;;;10.10;99.90;;;;;;4996977;28;19930;-90
2022/04/27 12:08:01;;;;;;;;;;;10.10;99.90;;;;;;4976871;28;19926;-89
2022/04/27 12:10:29;;;;;;;;;;;10.20;99.90;;;;;;4994237;28;19933;-91
2022/04/27 12:13:00;;;;;;;;;;;10.20;99.90;;;;;;4990797;28;19948;-90
2022/04/27 12:15:27;;;;;;;;;;;10.20;99.90;;;;;;4986624;28;20133;-90
2022/04/27 12:17:54;;;;;;;;;;;10.30;99.90;;;;;;4998217;28;19937;-92
2022/04/27 12:20:26;;;;;;;;;;;10.30;99.90;;;;;;5003265;28;19972;-91
2022/04/27 12:22:56;;;;;;;;;;;10.40;99.90;;;;;;5008148;28;19926;-92
2022/04/27 12:25:31;;;;;;;;;;;10.40;99.90;;;;;;4987527;28;19925;-91
2022/04/27 12:27:59;;;;;;;;;;;10.40;99.90;;;;;;5006850;28;19932;-93
2022/04/27 12:30:26;;;;;;;;;;;10.40;99.90;;;;;;5002477;28;20373;-93
2022/04/27 12:32:53;;;;;;;;;;;10.40;99.90;;;;;;5059777;23;19925;-83
2022/04/27 12:38:14;;;;;;;;;;;10.50;99.90;;;;;;4992668;28;19930;-81
2022/04/27 12:40:42;;;;;;;;;;;10.50;99.90;;;;;;4984469;28;19948;-81
2022/04/27 12:43:09;;;;;;;;;;;10.50;99.90;;;;;;4960898;28;19986;-81
2022/04/27 12:45:36;;;;;;;;;;;10.50;99.90;;;;;;4982981;28;19973;-81
2022/04/27 12:48:04;;;;;;;;;;;10.60;99.90;;;;;;4972342;28;19934;-82
2022/04/27 12:50:32;;;;;;;;;;;10.60;99.90;;;;;;4970392;28;20664;-82
2022/04/27 12:53:09;;;;;;;;;;;10.60;99.90;;;;;;4974254;28;20468;-80
2022/04/27 12:55:37;;;;;;;;;;;10.60;99.90;;;;;;4972119;28;19929;-81
2022/04/27 12:58:05;;;;;;;;;;;10.70;99.90;;;;;;4970553;28;20021;-82
2022/04/27 13:00:39;;;;;;;;;;;10.70;99.90;;;;;;4969864;28;19949;-83
2022/04/27 13:03:08;;;;;;;;;;;10.70;99.90;;;;;;4970726;28;19948;-81
2022/04/27 13:05:36;;;;;;;;;;;10.70;99.90;;;;;;4960158;28;19931;-81
2022/04/27 13:08:04;;;;;;;;;;;10.70;99.90;;;;;;4971006;28;19992;-81
2022/04/27 13:13:17;;;;;;;;;;;10.90;99.90;;;;;;4964786;28;19930;-81
2022/04/27 13:15:45;;;;;;;;;;;10.90;99.90;;;;;;4964028;28;19980;-82
2022/04/27 13:18:12;;;;;;;;;;;10.90;99.90;;;;;;4967456;28;19930;-81
2022/04/27 13:20:39;;;;;;;;;;;10.90;99.90;;;;;;4968155;28;19933;-81
2022/04/27 13:23:06;;;;;;;;;;;11.00;99.90;;;;;;4969203;28;20004;-81
2022/04/27 13:25:33;;;;;;;;;;;11.00;99.90;;;;;;4967788;28;19934;-81
2022/04/27 13:28:00;;;;;;;;;;;11.00;99.90;;;;;;4963073;28;19958;-80
2022/04/27 13:30:29;;;;;;;;;;;11.00;99.90;;;;;;4966899;28;19934;-81
2022/04/27 13:32:56;;;;;;;;;;;11.00;99.90;;;;;;4978079;28;19934;-79
2022/04/27 13:35:23;;;;;;;;;;;11.10;99.90;;;;;;4990399;28;19926;-81
2022/04/27 13:37:50;;;;;;;;;;;11.10;99.90;;;;;;4989998;28;20349;-81
2022/04/27 13:40:17;;;;;;;;;;;11.10;99.90;;;;;;4968542;28;19926;-82
2022/04/27 13:42:44;;;;;;;;;;;11.10;99.90;;;;;;4967455;28;19929;-82
2022/04/27 13:45:11;;;;;;;;;;;11.10;99.90;;;;;;4990395;28;19926;-81
2022/04/27 13:47:39;;;;;;;;;;;11.20;99.90;;;;;;4970335;28;19977;-82
2022/04/27 13:50:07;;;;;;;;;;;11.20;99.90;;;;;;4986853;28;19980;-83
2022/04/27 13:52:34;;;;;;;;;;;11.20;99.90;;;;;;4982990;28;19973;-81
2022/04/27 13:55:01;;;;;;;;;;;11.20;99.90;;;;;;4984003;28;19934;-81
2022/04/27 13:57:29;;;;;;;;;;;11.20;99.90;;;;;;4971681;28;20397;-81
2022/04/27 13:59:56;;;;;;;;;;;11.20;99.90;;;;;;4962908;28;19934;-80
2022/04/27 14:02:24;;;;;;;;;;;11.30;99.90;;;;;;4967244;28;20381;-82
2022/04/27 14:04:53;;;;;;;;;;;11.30;99.90;;;;;;4962201;28;20416;-81
2022/04/27 14:07:20;;;;;;;;;;;11.30;99.90;;;;;;4987952;28;19932;-81
2022/04/27 14:09:47;;;;;;;;;;;11.30;99.90;;;;;;4985981;28;19950;-81
2022/04/27 14:14:59;;;;;;;;;;;11.30;99.90;;;;;;4985880;28;19984;-83
2022/04/27 14:20:12;;;;;;;;;;;11.40;99.90;;;;;;4976210;28;19937;-81
2022/04/27 14:22:39;;;;;;;;;;;11.40;99.90;;;;;;4978698;28;20451;-82
2022/04/27 14:25:06;;;;;;;;;;;11.40;99.90;;;;;;4981950;28;19930;-82
2022/04/27 14:27:33;;;;;;;;;;;11.40;99.90;;;;;;4968396;28;19925;-82
2022/04/27 14:30:00;;;;;;;;;;;11.50;99.90;;;;;;4988716;28;19932;-82
2022/04/27 14:32:27;;;;;;;;;;;11.50;99.90;;;;;;4984079;28;19930;-82
2022/04/27 14:34:54;;;;;;;;;;;11.50;99.90;;;;;;4977363;28;20027;-81
2022/04/27 14:37:23;;;;;;;;;;;11.50;99.90;;;;;;4972663;28;19976;-84
2022/04/27 14:39:50;;;;;;;;;;;11.50;99.90;;;;;;4979302;28;20021;-82
2022/04/27 14:42:18;;;;;;;;;;;11.50;99.90;;;;;;4994821;28;20365;-81
2022/04/27 14:44:45;;;;;;;;;;;11.50;99.90;;;;;;4986496;28;20396;-82
2022/04/27 14:47:12;;;;;;;;;;;11.50;99.90;;;;;;4991687;28;19930;-82
2022/04/27 14:49:39;;;;;;;;;;;11.60;99.90;;;;;;4991442;28;19952;-82
2022/04/27 14:52:07;;;;;;;;;;;11.60;99.90;;;;;;4971638;28;19930;-82
2022/04/27 14:54:36;;;;;;;;;;;11.60;99.90;;;;;;4986527;28;19926;-82
2022/04/27 14:57:03;;;;;;;;;;;11.60;99.90;;;;;;4993261;28;21360;-82
2022/04/27 14:59:29;;;;;;;;;;;11.60;99.90;;;;;;4986253;28;19925;-81
2022/04/27 15:01:56;;;;;;;;;;;11.70;99.90;;;;;;4973293;28;19942;-82
2022/04/27 15:04:23;;;;;;;;;;;11.70;99.90;;;;;;4991300;28;20325;-81
2022/04/27 15:06:50;;;;;;;;;;;11.70;99.90;;;;;;4975136;28;19925;-82
2022/04/27 15:09:17;;;;;;;;;;;11.70;99.90;;;;;;4990911;28;20399;-82
2022/04/27 15:11:45;;;;;;;;;;;11.70;99.90;;;;;;4985361;28;19933;-82
2022/04/27 15:14:12;;;;;;;;;;;11.70;99.90;;;;;;4972179;28;19934;-82
2022/04/27 15:16:39;;;;;;;;;;;11.80;99.90;;;;;;4974402;28;19932;-82
2022/04/27 15:19:06;;;;;;;;;;;11.80;99.90;;;;;;4971315;28;19929;-82